EDT,Max TemperatureF,Mean TemperatureF,Min TemperatureF,Max Dew PointF,MeanDew PointF,Min DewpointF,Max Humidity, Mean Humidity, Min Humidity, Max Sea Level PressureIn, Mean Sea Level PressureIn, Min Sea Level PressureIn, Max VisibilityMiles, Mean VisibilityMiles, Min VisibilityMiles, Max Wind SpeedMPH, Mean Wind SpeedMPH, Max Gust SpeedMPH,PrecipitationIn, CloudCover, Events, WindDirDegrees
2013-3-1,53,44,34,34,29,24,89,59,33,29.93,29.89,29.83,10,10,10,10,1,16,0.00,3,,287
2013-3-2,48,41,35,36,30,25,85,63,42,29.91,29.88,29.82,10,10,10,9,1,,0.00,4,,28
2013-3-3,47,40,33,34,22,18,83,52,32,29.98,29.92,29.86,10,10,10,10,2,20,0.00,1,,305
2013-3-4,50,40,29,27,19,12,81,52,23,30.14,30.08,29.98,10,10,10,9,2,16,0.00,0,,284
2013-3-5,64,47,31,52,37,27,88,63,34,30.11,29.95,29.62,10,10,10,20,5,28,0.00,1,Rain,184
2013-3-6,57,49,39,52,29,20,83,49,32,30.02,29.76,29.58,10,10,10,18,11,32,0.00,3,,273
2013-3-7,55,44,34,33,29,27,74,56,37,30.21,30.13,30.03,10,10,10,9,4,,0.00,0,,305
2013-3-8,56,44,32,28,26,23,80,52,28,30.27,30.21,30.14,10,10,10,9,3,18,0.00,0,,317
2013-3-9,63,49,36,37,31,26,86,54,32,30.31,30.27,30.22,10,10,10,9,2,,0.00,0,,12
2013-3-10,67,50,32,39,27,14,99,51,14,30.32,30.26,30.21,10,10,10,9,2,,0.00,0,,91
2013-3-11,68,54,39,54,47,30,98,73,52,30.24,30.10,29.95,10,10,5,14,4,21,0.00,2,Rain,125
2013-3-12,71,64,56,62,58,43,98,83,58,29.96,29.85,29.77,10,9,3,13,6,25,0.26,3,Rain,187
2013-3-13,61,51,41,43,31,23,72,48,24,30.09,30.01,29.92,10,10,10,10,2,18,0.00,0,,289
2013-3-14,52,42,32,29,21,16,71,44,27,30.26,30.19,30.10,10,10,10,9,4,,0.00,0,,317
2013-3-15,64,46,29,41,30,18,89,58,25,30.22,30.11,29.98,10,10,10,13,3,17,0.00,0,,205
2013-3-16,79,64,49,45,42,39,67,42,28,29.98,29.87,29.76,10,10,10,20,9,30,0.00,0,,224
2013-3-17,79,66,51,53,47,41,85,56,32,30.09,29.95,29.88,10,10,7,17,6,24,0.00,1,,198
2013-3-18,65,55,45,55,47,41,94,79,61,30.14,30.03,29.89,10,9,2,12,7,16,0.00,6,,64
2013-3-19,69,58,48,52,44,29,99,72,26,30.00,29.89,29.76,10,8,2,10,5,21,0.38,4,Rain,276
2013-3-20,54,46,37,34,21,9,86,38,17,30.13,29.99,29.81,10,10,10,9,1,,0.00,0,,15
2013-3-21,51,43,35,33,21,10,91,47,20,29.97,29.80,29.72,10,10,10,13,4,23,0.00,0,,287
2013-3-22,52,40,29,32,17,11,78,42,26,30.11,30.04,29.97,10,10,10,8,3,,0.00,0,,269
2013-3-23,54,44,33,42,36,30,96,78,51,30.07,30.00,29.91,10,10,5,5,0,,0.05,2,Rain,94
2013-3-24,52,46,40,51,44,40,99,95,78,29.91,29.66,29.47,10,7,1,18,4,28,0.67,7,Rain,24
2013-3-25,51,46,40,41,32,24,98,64,36,29.87,29.66,29.54,10,10,5,16,7,26,0.00,4,,249
2013-3-26,48,40,32,30,26,23,73,54,40,30.13,29.98,29.88,10,10,10,10,5,21,0.00,1,,268
2013-3-27,55,44,32,28,25,21,78,51,29,30.23,30.18,30.13,10,10,10,13,3,21,0.00,0,,296
2013-3-28,56,43,30,31,25,23,80,53,28,30.28,30.23,30.17,10,10,10,12,2,21,0.00,0,,296
2013-3-29,61,46,31,37,28,23,89,52,24,30.34,30.27,30.20,10,10,10,9,2,16,0.00,1,,256
2013-3-30,64,55,46,47,43,36,96,71,45,30.25,30.19,30.12,10,10,7,12,3,,0.02,5,Rain,117
2013-3-31,72,59,46,58,51,41,94,73,49,30.12,29.96,29.86,10,10,3,22,5,30,0.23,5,Rain,204